sensor_id;sensor_type;location;lat;lon;timestamp;pressure;altitude;pressure_sealevel;temperature;humidity
68891;BME280;55932;48.702;8.884;2023-04-06T00:00:38;96350;;;-1.6;72.5
68891;BME280;55932;48.702;8.884;2023-04-06T00:03:08;96350;;;-1.6;72.5
68891;BME280;55932;48.702;8.884;2023-04-06T00:05:46;96350;;;-1.6;72.5
68891;BME280;55932;48.702;8.884;2023-04-06T00:08:17;96340;;;-1.5;72.5
68891;BME280;55932;48.702;8.884;2023-04-06T00:13:12;96350;;;-1.6;72.5
68891;BME280;55932;48.702;8.884;2023-04-06T00:15:42;96340;;;-1.7;72.5
68891;BME280;55932;48.702;8.884;2023-04-06T00:18:13;96340;;;-1.7;72.5
68891;BME280;55932;48.702;8.884;2023-04-06T00:30:47;96330;;;-1.9;72.5
68891;BME280;55932;48.702;8.884;2023-04-06T00:33:18;96330;;;-1.9;72.5
68891;BME280;55932;48.702;8.884;2023-04-06T00:38:32;96330;;;-2;72.5
68891;BME280;55932;48.702;8.884;2023-04-06T00:41:03;96330;;;-1.9;72.5
68891;BME280;55932;48.702;8.884;2023-04-06T00:43:27;96330;;;-1.9;72.5
68891;BME280;55932;48.702;8.884;2023-04-06T00:45:58;96330;;;-2;72.5
68891;BME280;55932;48.702;8.884;2023-04-06T00:48:28;96320;;;-1.9;72.5
68891;BME280;55932;48.702;8.884;2023-04-06T00:51:06;96320;;;-1.9;72.5
68891;BME280;55932;48.702;8.884;2023-04-06T00:53:37;96320;;;-2;72.5
68891;BME280;55932;48.702;8.884;2023-04-06T01:01:09;96320;;;-2.1;72.5
68891;BME280;55932;48.702;8.884;2023-04-06T01:03:39;96320;;;-2.2;73
68891;BME280;55932;48.702;8.884;2023-04-06T01:08:40;96310;;;-2.2;72.5
68891;BME280;55932;48.702;8.884;2023-04-06T01:11:10;96310;;;-2.2;72.5
68891;BME280;55932;48.702;8.884;2023-04-06T01:13:40;96310;;;-2.2;72.5
68891;BME280;55932;48.702;8.884;2023-04-06T01:21:12;96300;;;-2.2;72.5
68891;BME280;55932;48.702;8.884;2023-04-06T01:23:43;96300;;;-2.1;72.5
68891;BME280;55932;48.702;8.884;2023-04-06T01:26:13;96300;;;-2.1;72.5
68891;BME280;55932;48.702;8.884;2023-04-06T01:28:42;96290;;;-2.2;72.5
68891;BME280;55932;48.702;8.884;2023-04-06T01:31:13;96290;;;-2.3;72.5
68891;BME280;55932;48.702;8.884;2023-04-06T01:33:43;96290;;;-2.3;72.5
68891;BME280;55932;48.702;8.884;2023-04-06T01:36:13;96280;;;-2.3;72.5
68891;BME280;55932;48.702;8.884;2023-04-06T01:38:44;96290;;;-2.3;72.5
68891;BME280;55932;48.702;8.884;2023-04-06T01:43:39;96290;;;-2.2;72.5
68891;BME280;55932;48.702;8.884;2023-04-06T01:46:10;96280;;;-2.2;72.5
68891;BME280;55932;48.702;8.884;2023-04-06T01:51:18;96290;;;-2.3;72.5
68891;BME280;55932;48.702;8.884;2023-04-06T01:53:47;96280;;;-2.3;72.5
68891;BME280;55932;48.702;8.884;2023-04-06T01:56:11;96280;;;-2.3;72.5
68891;BME280;55932;48.702;8.884;2023-04-06T01:58:42;96290;;;-2.2;72
68891;BME280;55932;48.702;8.884;2023-04-06T02:01:13;96280;;;-2.3;72.5
68891;BME280;55932;48.702;8.884;2023-04-06T02:03:51;96270;;;-2.3;72.5
68891;BME280;55932;48.702;8.884;2023-04-06T02:06:22;96280;;;-2.3;72.5
68891;BME280;55932;48.702;8.884;2023-04-06T02:11:17;96290;;;-2.4;72.5
68891;BME280;55932;48.702;8.884;2023-04-06T02:13:48;96280;;;-2.5;72.5
68891;BME280;55932;48.702;8.884;2023-04-06T02:16:19;96290;;;-2.6;73
68891;BME280;55932;48.702;8.884;2023-04-06T02:23:58;96280;;;-2.8;72.5
68891;BME280;55932;48.702;8.884;2023-04-06T02:26:28;96290;;;-2.8;72.5
68891;BME280;55932;48.702;8.884;2023-04-06T02:28:52;96290;;;-2.9;72.5
68891;BME280;55932;48.702;8.884;2023-04-06T02:31:23;96280;;;-2.9;72.5
68891;BME280;55932;48.702;8.884;2023-04-06T02:34:00;96280;;;-2.9;72.5
68891;BME280;55932;48.702;8.884;2023-04-06T02:38:49;96280;;;-2.9;72.5
68891;BME280;55932;48.702;8.884;2023-04-06T02:41:20;96280;;;-2.8;72.5
68891;BME280;55932;48.702;8.884;2023-04-06T02:43:50;96280;;;-2.7;72.5
68891;BME280;55932;48.702;8.884;2023-04-06T02:46:22;96270;;;-2.5;72
68891;BME280;55932;48.702;8.884;2023-04-06T02:48:52;96270;;;-2.5;72.5
68891;BME280;55932;48.702;8.884;2023-04-06T02:51:23;96270;;;-2.5;72.5
68891;BME280;55932;48.702;8.884;2023-04-06T02:53:54;96270;;;-2.6;72.5
68891;BME280;55932;48.702;8.884;2023-04-06T02:56:25;96270;;;-2.7;72.5
68891;BME280;55932;48.702;8.884;2023-04-06T03:03:57;96270;;;-2.7;72.5
68891;BME280;55932;48.702;8.884;2023-04-06T03:06:28;96270;;;-2.7;72.5
68891;BME280;55932;48.702;8.884;2023-04-06T03:08:59;96280;;;-2.8;72.5
68891;BME280;55932;48.702;8.884;2023-04-06T03:11:29;96280;;;-2.8;72.5
68891;BME280;55932;48.702;8.884;2023-04-06T03:14:13;96270;;;-2.8;72.5
68891;BME280;55932;48.702;8.884;2023-04-06T03:16:43;96270;;;-2.8;72.5
68891;BME280;55932;48.702;8.884;2023-04-06T03:21:37;96270;;;-2.7;72.5
68891;BME280;55932;48.702;8.884;2023-04-06T03:24:09;96270;;;-2.8;72.5
68891;BME280;55932;48.702;8.884;2023-04-06T03:26:39;96270;;;-2.8;72.5
68891;BME280;55932;48.702;8.884;2023-04-06T03:31:41;96280;;;-3;72.5
68891;BME280;55932;48.702;8.884;2023-04-06T03:36:49;96280;;;-3.1;72.5
68891;BME280;55932;48.702;8.884;2023-04-06T03:39:19;96290;;;-3.2;72.5
68891;BME280;55932;48.702;8.884;2023-04-06T03:44:13;96280;;;-3.1;72.5
68891;BME280;55932;48.702;8.884;2023-04-06T03:46:44;96290;;;-3.1;72.5
68891;BME280;55932;48.702;8.884;2023-04-06T03:49:14;96290;;;-3.1;72.5
68891;BME280;55932;48.702;8.884;2023-04-06T03:51:53;96280;;;-3;72.5
68891;BME280;55932;48.702;8.884;2023-04-06T03:54:23;96290;;;-2.9;72
68891;BME280;55932;48.702;8.884;2023-04-06T03:57:00;96290;;;-3;72.5
68891;BME280;55932;48.702;8.884;2023-04-06T04:01:47;96290;;;-3.1;72.5
68891;BME280;55932;48.702;8.884;2023-04-06T04:04:18;96290;;;-3.2;72.5
68891;BME280;55932;48.702;8.884;2023-04-06T04:06:50;96290;;;-3.2;72.5
68891;BME280;55932;48.702;8.884;2023-04-06T04:11:44;96300;;;-3.3;72.5
68891;BME280;55932;48.702;8.884;2023-04-06T04:14:15;96290;;;-3.3;72.5
68891;BME280;55932;48.702;8.884;2023-04-06T04:21:47;96300;;;-3.5;72.5
68891;BME280;55932;48.702;8.884;2023-04-06T04:24:18;96300;;;-3.5;72.5
68891;BME280;55932;48.702;8.884;2023-04-06T04:26:49;96300;;;-3.3;72.5
68891;BME280;55932;48.702;8.884;2023-04-06T04:31:57;96300;;;-3.2;72.5
68891;BME280;55932;48.702;8.884;2023-04-06T04:34:27;96300;;;-3.2;72.5
68891;BME280;55932;48.702;8.884;2023-04-06T04:36:58;96300;;;-3.2;72.5
68891;BME280;55932;48.702;8.884;2023-04-06T04:39:22;96300;;;-3.3;72.5
68891;BME280;55932;48.702;8.884;2023-04-06T04:41:53;96300;;;-3.3;72.5
68891;BME280;55932;48.702;8.884;2023-04-06T04:49:26;96300;;;-3.5;72.5
68891;BME280;55932;48.702;8.884;2023-04-06T04:51:56;96310;;;-3.5;72.5
68891;BME280;55932;48.702;8.884;2023-04-06T04:54:28;96310;;;-3.4;72.5
68891;BME280;55932;48.702;8.884;2023-04-06T04:56:58;96310;;;-3.5;72
68891;BME280;55932;48.702;8.884;2023-04-06T04:59:35;96310;;;-3.5;72
68891;BME280;55932;48.702;8.884;2023-04-06T05:02:06;96310;;;-3.5;72
68891;BME280;55932;48.702;8.884;2023-04-06T05:07:03;96310;;;-3.3;72
68891;BME280;55932;48.702;8.884;2023-04-06T05:09:31;96310;;;-3.1;71.5
68891;BME280;55932;48.702;8.884;2023-04-06T05:17:04;96310;;;-3;71.5
68891;BME280;55932;48.702;8.884;2023-04-06T05:24:36;96320;;;-2.7;71.5
68891;BME280;55932;48.702;8.884;2023-04-06T05:32:20;96320;;;-2.3;71
68891;BME280;55932;48.702;8.884;2023-04-06T05:34:50;96320;;;-2.2;71
68891;BME280;55932;48.702;8.884;2023-04-06T05:37:21;96310;;;-2;71
68891;BME280;55932;48.702;8.884;2023-04-06T05:42:17;96320;;;-1.8;71
68891;BME280;55932;48.702;8.884;2023-04-06T05:44:46;96320;;;-1.8;71
68891;BME280;55932;48.702;8.884;2023-04-06T05:47:17;96320;;;-1.6;71
68891;BME280;55932;48.702;8.884;2023-04-06T05:49:47;96320;;;-0.8;69.5
68891;BME280;55932;48.702;8.884;2023-04-06T05:52:18;96310;;;0.5;66.5
68891;BME280;55932;48.702;8.884;2023-04-06T05:54:55;96310;;;2;63.5
68891;BME280;55932;48.702;8.884;2023-04-06T05:57:26;96310;;;2.4;64
68891;BME280;55932;48.702;8.884;2023-04-06T06:02:20;96310;;;3.5;62.5
68891;BME280;55932;48.702;8.884;2023-04-06T06:04:51;96310;;;3.9;63
68891;BME280;55932;48.702;8.884;2023-04-06T06:07:23;96310;;;4.3;63
68891;BME280;55932;48.702;8.884;2023-04-06T06:09:56;96320;;;4.4;64
68891;BME280;55932;48.702;8.884;2023-04-06T06:12:24;96320;;;4;66.5
68891;BME280;55932;48.702;8.884;2023-04-06T06:14:55;96320;;;4.4;66
68891;BME280;55932;48.702;8.884;2023-04-06T06:17:25;96320;;;4.7;65.5
68891;BME280;55932;48.702;8.884;2023-04-06T06:19:56;96320;;;5.2;65
68891;BME280;55932;48.702;8.884;2023-04-06T06:22:27;96320;;;5.4;65
68891;BME280;55932;48.702;8.884;2023-04-06T06:25:05;96330;;;5.1;66
68891;BME280;55932;48.702;8.884;2023-04-06T06:32:37;96330;;;4.8;67
68891;BME280;55932;48.702;8.884;2023-04-06T06:35:07;96320;;;4.8;67
68891;BME280;55932;48.702;8.884;2023-04-06T06:37:37;96320;;;5.5;66
68891;BME280;55932;48.702;8.884;2023-04-06T06:42:31;96310;;;8.3;61.5
68891;BME280;55932;48.702;8.884;2023-04-06T06:45:02;96310;;;8.4;62
68891;BME280;55932;48.702;8.884;2023-04-06T06:47:33;96310;;;8.3;63.5
68891;BME280;55932;48.702;8.884;2023-04-06T06:50:04;96320;;;8.9;63
68891;BME280;55932;48.702;8.884;2023-04-06T06:52:41;96320;;;8.6;64
68891;BME280;55932;48.702;8.884;2023-04-06T07:00:15;96310;;;12.6;57.5
68891;BME280;55932;48.702;8.884;2023-04-06T07:02:44;96300;;;14.4;54
68891;BME280;55932;48.702;8.884;2023-04-06T07:07:39;96310;;;14.8;52
68891;BME280;55932;48.702;8.884;2023-04-06T07:10:11;96310;;;15.3;51
68891;BME280;55932;48.702;8.884;2023-04-06T07:12:41;96310;;;15.4;50.5
68891;BME280;55932;48.702;8.884;2023-04-06T07:20:07;96300;;;16.7;52.5
68891;BME280;55932;48.702;8.884;2023-04-06T07:22:38;96300;;;16.9;52.5
68891;BME280;55932;48.702;8.884;2023-04-06T07:25:08;96300;;;16.3;54
68891;BME280;55932;48.702;8.884;2023-04-06T07:27:38;96310;;;15.5;56
68891;BME280;55932;48.702;8.884;2023-04-06T07:30:09;96300;;;16.7;53
68891;BME280;55932;48.702;8.884;2023-04-06T07:32:40;96300;;;16.9;52
68891;BME280;55932;48.702;8.884;2023-04-06T07:35:10;96310;;;15.3;55.5
68891;BME280;55932;48.702;8.884;2023-04-06T07:37:41;96300;;;16.1;52.5
68891;BME280;55932;48.702;8.884;2023-04-06T07:40:12;96310;;;16.1;53.5
68891;BME280;55932;48.702;8.884;2023-04-06T07:42:49;96300;;;17;51.5
68891;BME280;55932;48.702;8.884;2023-04-06T07:45:20;96300;;;17.8;51.5
68891;BME280;55932;48.702;8.884;2023-04-06T07:50:22;96300;;;18.2;51.5
68891;BME280;55932;48.702;8.884;2023-04-06T07:52:53;96310;;;16.3;56
68891;BME280;55932;48.702;8.884;2023-04-06T07:58:02;96310;;;16.7;56
68891;BME280;55932;48.702;8.884;2023-04-06T08:03:15;96300;;;18;53.5
68891;BME280;55932;48.702;8.884;2023-04-06T08:05:32;96300;;;18.4;52.5
68891;BME280;55932;48.702;8.884;2023-04-06T08:08:15;96300;;;18.4;52.5
68891;BME280;55932;48.702;8.884;2023-04-06T08:12:57;96300;;;18.4;54
68891;BME280;55932;48.702;8.884;2023-04-06T08:15:27;96300;;;17.9;56
68891;BME280;55932;48.702;8.884;2023-04-06T08:20:22;96290;;;18.3;56
68891;BME280;55932;48.702;8.884;2023-04-06T08:22:53;96300;;;18.5;55.5
68891;BME280;55932;48.702;8.884;2023-04-06T08:25:24;96300;;;17.9;56.5
68891;BME280;55932;48.702;8.884;2023-04-06T08:27:54;96300;;;17.9;57.5
68891;BME280;55932;48.702;8.884;2023-04-06T08:37:58;96300;;;18.6;57
68891;BME280;55932;48.702;8.884;2023-04-06T08:40:28;96300;;;18.9;56
68891;BME280;55932;48.702;8.884;2023-04-06T08:45:43;96300;;;19.4;56
68891;BME280;55932;48.702;8.884;2023-04-06T08:48:12;96290;;;18.7;57
68891;BME280;55932;48.702;8.884;2023-04-06T08:50:42;96290;;;18.4;57
68891;BME280;55932;48.702;8.884;2023-04-06T08:55:36;96290;;;19.5;55
68891;BME280;55932;48.702;8.884;2023-04-06T08:58:08;96290;;;18.8;55
68891;BME280;55932;48.702;8.884;2023-04-06T09:00:45;96290;;;18.3;56.5
68891;BME280;55932;48.702;8.884;2023-04-06T09:03:16;96290;;;18.9;56
68891;BME280;55932;48.702;8.884;2023-04-06T09:08:32;96290;;;19.1;57.5
68891;BME280;55932;48.702;8.884;2023-04-06T09:10:48;96290;;;19.7;55.5
68891;BME280;55932;48.702;8.884;2023-04-06T09:15:42;96290;;;19.3;55.5
68891;BME280;55932;48.702;8.884;2023-04-06T09:18:13;96290;;;19.4;56
68891;BME280;55932;48.702;8.884;2023-04-06T09:20:44;96290;;;19;58
68891;BME280;55932;48.702;8.884;2023-04-06T09:23:18;96290;;;19.5;57.5
68891;BME280;55932;48.702;8.884;2023-04-06T09:26:03;96290;;;20.2;56
68891;BME280;55932;48.702;8.884;2023-04-06T09:28:22;96290;;;20.5;55
68891;BME280;55932;48.702;8.884;2023-04-06T09:33:22;96290;;;20.5;56.5
68891;BME280;55932;48.702;8.884;2023-04-06T09:35:50;96290;;;21;56
68891;BME280;55932;48.702;8.884;2023-04-06T09:38:18;96290;;;19.8;58.5
68891;BME280;55932;48.702;8.884;2023-04-06T09:43:22;96290;;;19.6;59
68891;BME280;55932;48.702;8.884;2023-04-06T09:45:44;96290;;;19.5;60
68891;BME280;55932;48.702;8.884;2023-04-06T09:48:14;96290;;;19.6;60.5
68891;BME280;55932;48.702;8.884;2023-04-06T09:55:47;96290;;;19.2;61.5
68891;BME280;55932;48.702;8.884;2023-04-06T09:58:17;96280;;;18.4;63.5
68891;BME280;55932;48.702;8.884;2023-04-06T10:03:36;96280;;;19.6;59
68891;BME280;55932;48.702;8.884;2023-04-06T10:06:04;96280;;;19.5;59
68891;BME280;55932;48.702;8.884;2023-04-06T10:08:33;96280;;;20;60
68891;BME280;55932;48.702;8.884;2023-04-06T10:13:26;96270;;;19.5;59
68891;BME280;55932;48.702;8.884;2023-04-06T10:15:58;96270;;;18.9;59.5
68891;BME280;55932;48.702;8.884;2023-04-06T10:18:28;96270;;;18.6;61.5
68891;BME280;55932;48.702;8.884;2023-04-06T10:23:40;96270;;;18.7;62.5
68891;BME280;55932;48.702;8.884;2023-04-06T10:26:15;96270;;;18.1;64
68891;BME280;55932;48.702;8.884;2023-04-06T10:31:07;96270;;;18.4;63
68891;BME280;55932;48.702;8.884;2023-04-06T10:33:39;96270;;;18.4;63
68891;BME280;55932;48.702;8.884;2023-04-06T10:38:34;96270;;;19.9;61
68891;BME280;55932;48.702;8.884;2023-04-06T10:41:03;96270;;;20;61
68891;BME280;55932;48.702;8.884;2023-04-06T10:43:33;96270;;;19.1;61
68891;BME280;55932;48.702;8.884;2023-04-06T10:48:43;96260;;;18.1;64.5
68891;BME280;55932;48.702;8.884;2023-04-06T10:50:58;96260;;;19.4;64
68891;BME280;55932;48.702;8.884;2023-04-06T10:53:29;96260;;;20.2;62
68891;BME280;55932;48.702;8.884;2023-04-06T10:55:59;96260;;;19.8;62
68891;BME280;55932;48.702;8.884;2023-04-06T10:58:31;96260;;;18.9;63.5
68891;BME280;55932;48.702;8.884;2023-04-06T11:01:01;96270;;;19.5;63.5
68891;BME280;55932;48.702;8.884;2023-04-06T11:11:30;96260;;;18.3;65.5
68891;BME280;55932;48.702;8.884;2023-04-06T11:13:52;96260;;;18.9;65.5
68891;BME280;55932;48.702;8.884;2023-04-06T11:16:18;96250;;;19.7;63.5
68891;BME280;55932;48.702;8.884;2023-04-06T11:18:57;96250;;;19.5;62.5
68891;BME280;55932;48.702;8.884;2023-04-06T11:21:12;96250;;;19.1;64
68891;BME280;55932;48.702;8.884;2023-04-06T11:23:43;96240;;;19;64
68891;BME280;55932;48.702;8.884;2023-04-06T11:31:09;96240;;;19.7;63.5
68891;BME280;55932;48.702;8.884;2023-04-06T11:33:40;96240;;;19.9;65
68891;BME280;55932;48.702;8.884;2023-04-06T11:36:10;96240;;;19.9;65
68891;BME280;55932;48.702;8.884;2023-04-06T11:38:42;96240;;;18.4;66
68891;BME280;55932;48.702;8.884;2023-04-06T11:41:12;96230;;;18.4;66.5
68891;BME280;55932;48.702;8.884;2023-04-06T11:43:47;96230;;;17.7;67.5
68891;BME280;55932;48.702;8.884;2023-04-06T11:46:17;96220;;;17.5;67
68891;BME280;55932;48.702;8.884;2023-04-06T11:48:46;96230;;;17.1;66.5
68891;BME280;55932;48.702;8.884;2023-04-06T11:51:22;96220;;;17.6;67
68891;BME280;55932;48.702;8.884;2023-04-06T12:03:56;96210;;;16.3;68
68891;BME280;55932;48.702;8.884;2023-04-06T12:11:26;96220;;;16.5;69
68891;BME280;55932;48.702;8.884;2023-04-06T12:13:57;96210;;;18.1;67.5
68891;BME280;55932;48.702;8.884;2023-04-06T12:16:28;96210;;;18.4;66.5
68891;BME280;55932;48.702;8.884;2023-04-06T12:18:52;96210;;;18.4;66
68891;BME280;55932;48.702;8.884;2023-04-06T12:28:55;96200;;;18.9;64
68891;BME280;55932;48.702;8.884;2023-04-06T12:31:26;96190;;;18.8;65
68891;BME280;55932;48.702;8.884;2023-04-06T12:33:56;96190;;;19.1;66
68891;BME280;55932;48.702;8.884;2023-04-06T12:39:04;96190;;;18.8;66
68891;BME280;55932;48.702;8.884;2023-04-06T12:41:36;96190;;;18.4;65.5
68891;BME280;55932;48.702;8.884;2023-04-06T12:44:07;96190;;;18.2;66
68891;BME280;55932;48.702;8.884;2023-04-06T12:46:37;96180;;;18.7;66
68891;BME280;55932;48.702;8.884;2023-04-06T12:49:08;96180;;;19.1;65.5
68891;BME280;55932;48.702;8.884;2023-04-06T12:56:34;96180;;;18.2;66
68891;BME280;55932;48.702;8.884;2023-04-06T12:59:05;96180;;;17.3;66
68891;BME280;55932;48.702;8.884;2023-04-06T13:01:36;96180;;;16.7;67
68891;BME280;55932;48.702;8.884;2023-04-06T13:04:06;96180;;;16.7;68
68891;BME280;55932;48.702;8.884;2023-04-06T13:06:38;96170;;;16.5;67.5
68891;BME280;55932;48.702;8.884;2023-04-06T13:09:08;96180;;;16.8;67
68891;BME280;55932;48.702;8.884;2023-04-06T13:14:09;96170;;;16.8;67
68891;BME280;55932;48.702;8.884;2023-04-06T13:16:39;96160;;;16.3;67
68891;BME280;55932;48.702;8.884;2023-04-06T13:19:17;96160;;;16.5;67
68891;BME280;55932;48.702;8.884;2023-04-06T13:21:48;96160;;;17;65
68891;BME280;55932;48.702;8.884;2023-04-06T13:24:25;96150;;;17.1;65.5
68891;BME280;55932;48.702;8.884;2023-04-06T13:32:11;96160;;;18.3;65.5
68891;BME280;55932;48.702;8.884;2023-04-06T13:34:28;96150;;;18.8;65
68891;BME280;55932;48.702;8.884;2023-04-06T13:39:23;96140;;;18.9;63
68891;BME280;55932;48.702;8.884;2023-04-06T13:41:54;96140;;;18.1;64.5
68891;BME280;55932;48.702;8.884;2023-04-06T13:44:24;96140;;;17.5;64.5
68891;BME280;55932;48.702;8.884;2023-04-06T13:46:48;96150;;;16.5;66
68891;BME280;55932;48.702;8.884;2023-04-06T13:54:21;96140;;;16.6;66.5
68891;BME280;55932;48.702;8.884;2023-04-06T13:56:52;96140;;;16.6;66.5
68891;BME280;55932;48.702;8.884;2023-04-06T13:59:23;96150;;;16.3;67.5
68891;BME280;55932;48.702;8.884;2023-04-06T14:01:53;96140;;;16.7;67
68891;BME280;55932;48.702;8.884;2023-04-06T14:04:24;96140;;;16.2;65.5
68891;BME280;55932;48.702;8.884;2023-04-06T14:06:56;96140;;;16.1;66.5
68891;BME280;55932;48.702;8.884;2023-04-06T14:09:32;96140;;;15.8;67
68891;BME280;55932;48.702;8.884;2023-04-06T14:12:03;96140;;;16.2;67.5
68891;BME280;55932;48.702;8.884;2023-04-06T14:14:34;96140;;;16.4;66
68891;BME280;55932;48.702;8.884;2023-04-06T14:21:59;96140;;;14.3;67
68891;BME280;55932;48.702;8.884;2023-04-06T14:24:32;96140;;;14.2;66.5
68891;BME280;55932;48.702;8.884;2023-04-06T14:27:02;96140;;;14.3;66.5
68891;BME280;55932;48.702;8.884;2023-04-06T14:29:32;96140;;;14.2;66.5
68891;BME280;55932;48.702;8.884;2023-04-06T14:32:03;96140;;;13.9;66.5
68891;BME280;55932;48.702;8.884;2023-04-06T14:34:36;96140;;;13.9;66.5
68891;BME280;55932;48.702;8.884;2023-04-06T14:37:04;96140;;;13.7;67
68891;BME280;55932;48.702;8.884;2023-04-06T14:39:35;96140;;;13.4;67
68891;BME280;55932;48.702;8.884;2023-04-06T14:52:20;96150;;;13.1;67
68891;BME280;55932;48.702;8.884;2023-04-06T14:54:46;96140;;;13;67
68891;BME280;55932;48.702;8.884;2023-04-06T14:57:17;96140;;;12.9;67
68891;BME280;55932;48.702;8.884;2023-04-06T14:59:40;96140;;;13;67
68891;BME280;55932;48.702;8.884;2023-04-06T15:07:13;96150;;;12.8;67
68891;BME280;55932;48.702;8.884;2023-04-06T15:09:44;96140;;;12.9;67
68891;BME280;55932;48.702;8.884;2023-04-06T15:12:14;96140;;;13;67
68891;BME280;55932;48.702;8.884;2023-04-06T15:14:45;96140;;;13;67
68891;BME280;55932;48.702;8.884;2023-04-06T15:17:16;96140;;;12.9;67
68891;BME280;55932;48.702;8.884;2023-04-06T15:19:53;96140;;;12.9;67
68891;BME280;55932;48.702;8.884;2023-04-06T15:22:24;96150;;;12.7;67
68891;BME280;55932;48.702;8.884;2023-04-06T15:27:19;96140;;;12.8;67
68891;BME280;55932;48.702;8.884;2023-04-06T15:37:22;96140;;;12.7;67
68891;BME280;55932;48.702;8.884;2023-04-06T15:39:53;96150;;;12.7;67
68891;BME280;55932;48.702;8.884;2023-04-06T15:42:24;96150;;;12.6;67
68891;BME280;55932;48.702;8.884;2023-04-06T15:44:55;96150;;;12.6;67
68891;BME280;55932;48.702;8.884;2023-04-06T15:47:26;96150;;;12.4;67
68891;BME280;55932;48.702;8.884;2023-04-06T15:49:56;96150;;;12.2;67.5
68891;BME280;55932;48.702;8.884;2023-04-06T15:52:35;96150;;;12.1;67.5
68891;BME280;55932;48.702;8.884;2023-04-06T15:55:06;96150;;;12.1;67.5
68891;BME280;55932;48.702;8.884;2023-04-06T15:57:35;96150;;;12;67.5
68891;BME280;55932;48.702;8.884;2023-04-06T16:05:01;96150;;;11.8;67.5
68891;BME280;55932;48.702;8.884;2023-04-06T16:07:34;96150;;;11.7;67.5
68891;BME280;55932;48.702;8.884;2023-04-06T16:10:03;96150;;;11.6;67.5
68891;BME280;55932;48.702;8.884;2023-04-06T16:12:33;96150;;;11.6;67.5
68891;BME280;55932;48.702;8.884;2023-04-06T16:15:04;96150;;;11.7;67.5
68891;BME280;55932;48.702;8.884;2023-04-06T16:17:35;96150;;;11.7;67.5
68891;BME280;55932;48.702;8.884;2023-04-06T16:20:06;96150;;;11.7;67.5
68891;BME280;55932;48.702;8.884;2023-04-06T16:22:36;96150;;;11.6;67.5
68891;BME280;55932;48.702;8.884;2023-04-06T16:25:08;96150;;;11.5;67.5
68891;BME280;55932;48.702;8.884;2023-04-06T16:32:40;96160;;;11.1;68
68891;BME280;55932;48.702;8.884;2023-04-06T16:37:41;96170;;;11;67.5
68891;BME280;55932;48.702;8.884;2023-04-06T16:40:12;96170;;;10.9;67.5
68891;BME280;55932;48.702;8.884;2023-04-06T16:42:49;96170;;;10.9;68
68891;BME280;55932;48.702;8.884;2023-04-06T16:45:20;96170;;;10.9;67.5
68891;BME280;55932;48.702;8.884;2023-04-06T16:47:51;96170;;;11;67.5
68891;BME280;55932;48.702;8.884;2023-04-06T16:55:17;96160;;;10.9;67.5
68891;BME280;55932;48.702;8.884;2023-04-06T16:57:48;96160;;;11;67.5
68891;BME280;55932;48.702;8.884;2023-04-06T17:00:19;96160;;;11;67.5
68891;BME280;55932;48.702;8.884;2023-04-06T17:02:50;96160;;;10.9;67.5
68891;BME280;55932;48.702;8.884;2023-04-06T17:05:20;96160;;;10.8;67.5
68891;BME280;55932;48.702;8.884;2023-04-06T17:07:52;96160;;;10.7;67.5
68891;BME280;55932;48.702;8.884;2023-04-06T17:10:22;96170;;;10.7;67.5
68891;BME280;55932;48.702;8.884;2023-04-06T17:12:52;96170;;;10.6;67.5
68891;BME280;55932;48.702;8.884;2023-04-06T17:25:26;96170;;;10.3;68
68891;BME280;55932;48.702;8.884;2023-04-06T17:30:34;96170;;;10.1;68
68891;BME280;55932;48.702;8.884;2023-04-06T17:35:36;96170;;;9.9;68
68891;BME280;55932;48.702;8.884;2023-04-06T17:38:06;96180;;;9.9;68
68891;BME280;55932;48.702;8.884;2023-04-06T17:43:02;96180;;;9.7;68
68891;BME280;55932;48.702;8.884;2023-04-06T17:53:05;96190;;;9.3;68
68891;BME280;55932;48.702;8.884;2023-04-06T17:55:35;96190;;;9.2;68
68891;BME280;55932;48.702;8.884;2023-04-06T17:58:06;96190;;;9.2;68
68891;BME280;55932;48.702;8.884;2023-04-06T18:00:39;96190;;;9.2;68
68891;BME280;55932;48.702;8.884;2023-04-06T18:05:44;96190;;;9.2;68
68891;BME280;55932;48.702;8.884;2023-04-06T18:08:20;96200;;;9.2;68
68891;BME280;55932;48.702;8.884;2023-04-06T18:10:46;96200;;;9.2;68
68891;BME280;55932;48.702;8.884;2023-04-06T18:18:24;96220;;;9.1;68
68891;BME280;55932;48.702;8.884;2023-04-06T18:21:02;96220;;;9.1;68
68891;BME280;55932;48.702;8.884;2023-04-06T18:23:38;96230;;;9;68
68891;BME280;55932;48.702;8.884;2023-04-06T18:28:20;96220;;;9.1;68
68891;BME280;55932;48.702;8.884;2023-04-06T18:30:50;96230;;;9.1;67.5
68891;BME280;55932;48.702;8.884;2023-04-06T18:33:21;96230;;;9.1;67.5
68891;BME280;55932;48.702;8.884;2023-04-06T18:35:45;96230;;;9;68
68891;BME280;55932;48.702;8.884;2023-04-06T18:38:16;96230;;;9;68
68891;BME280;55932;48.702;8.884;2023-04-06T18:40:47;96240;;;8.9;68
68891;BME280;55932;48.702;8.884;2023-04-06T18:43:17;96240;;;8.9;68
68891;BME280;55932;48.702;8.884;2023-04-06T18:45:48;96250;;;8.8;68
68891;BME280;55932;48.702;8.884;2023-04-06T18:56:12;96250;;;8.6;68
68891;BME280;55932;48.702;8.884;2023-04-06T18:58:47;96250;;;8.6;68
68891;BME280;55932;48.702;8.884;2023-04-06T19:03:28;96260;;;8.6;68
68891;BME280;55932;48.702;8.884;2023-04-06T19:06:00;96260;;;8.5;68
68891;BME280;55932;48.702;8.884;2023-04-06T19:10:54;96260;;;8.5;68
68891;BME280;55932;48.702;8.884;2023-04-06T19:13:25;96260;;;8.5;68
68891;BME280;55932;48.702;8.884;2023-04-06T19:20:58;96260;;;8.5;67.5
68891;BME280;55932;48.702;8.884;2023-04-06T19:23:28;96260;;;8.5;67.5
68891;BME280;55932;48.702;8.884;2023-04-06T19:25:59;96260;;;8.5;67.5
68891;BME280;55932;48.702;8.884;2023-04-06T19:28:30;96270;;;8.5;67.5
68891;BME280;55932;48.702;8.884;2023-04-06T19:31:07;96260;;;8.5;67.5
68891;BME280;55932;48.702;8.884;2023-04-06T19:33:38;96270;;;8.5;67.5
68891;BME280;55932;48.702;8.884;2023-04-06T19:36:09;96280;;;8.5;67.5
68891;BME280;55932;48.702;8.884;2023-04-06T19:48:36;96270;;;8.3;67.5
68891;BME280;55932;48.702;8.884;2023-04-06T19:51:07;96270;;;8.3;67.5
68891;BME280;55932;48.702;8.884;2023-04-06T19:53:37;96270;;;8.2;67.5
68891;BME280;55932;48.702;8.884;2023-04-06T19:56:08;96270;;;8.2;67.5
68891;BME280;55932;48.702;8.884;2023-04-06T20:01:16;96270;;;8.1;67.5
68891;BME280;55932;48.702;8.884;2023-04-06T20:03:47;96270;;;8.1;67.5
68891;BME280;55932;48.702;8.884;2023-04-06T20:06:18;96270;;;8;68
68891;BME280;55932;48.702;8.884;2023-04-06T20:08:42;96270;;;7.9;68
68891;BME280;55932;48.702;8.884;2023-04-06T20:11:12;96270;;;7.9;68
68891;BME280;55932;48.702;8.884;2023-04-06T20:13:44;96280;;;7.9;67.5